Time;durP1;ratioP1;P1;durP2;ratioP2;P2;SDS_P1;SDS_P2;PMS_P1;PMS_P2;Temp;Humidity;BMP_temperature;BMP_pressure;BME280_temperature;BME280_humidity;BME280_pressure;Samples;Min_cycle;Max_cycle;Signal;HPM_P1;HPM_P2
2022/07/26 00:02:27;;;;;;;;;;;;;;;;;;2206829;59;1458;-64
2022/07/26 00:05:00;;;;;;;;;;;;;;;;;;2206306;59;1272;-65
2022/07/26 00:07:33;;;;;;;;;;;;;;;;;;2207785;67;1233;-65
2022/07/26 00:10:07;;;;;;;;;;;;;;;;;;2206467;67;1270;-65
2022/07/26 00:12:43;;;;;;;;;;;;;;;;;;2207324;59;1935;-66
2022/07/26 00:15:16;;;;;;;;;;;;;;;;;;2207066;59;2021;-65
2022/07/26 00:17:49;;;;;;;;;;;;;;;;;;2206180;59;1121;-65
2022/07/26 00:20:22;;;;;;;;;;;;;;;;;;2206682;67;1279;-63
2022/07/26 00:22:56;;;;;;;;;;;;;;;;;;2206690;67;1184;-65
2022/07/26 00:25:29;;;;;;;;;;;;;;;;;;2206970;67;1212;-64
2022/07/26 00:28:05;;;;;;;;;;;;;;;;;;2206239;67;1301;-65
2022/07/26 00:30:38;;;;;;;;;;;;;;;;;;2206674;67;1196;-65
2022/07/26 00:33:11;;;;;;;;;;;;;;;;;;2206286;67;1989;-63
2022/07/26 00:35:44;;;;;;;;;;;;;;;;;;2207597;59;1415;-65
2022/07/26 00:38:17;;;;;;;;;;;;;;;;;;2206181;59;2016;-63
2022/07/26 00:40:51;;;;;;;;;;;;;;;;;;2206627;67;1275;-65
2022/07/26 00:43:26;;;;;;;;;;;;;;;;;;2206662;67;1248;-65
2022/07/26 00:46:00;;;;;;;;;;;;;;;;;;2205418;67;1128;-64
2022/07/26 00:48:33;;;;;;;;;;;;;;;;;;2206721;67;1206;-63
2022/07/26 00:51:06;;;;;;;;;;;;;;;;;;2205998;67;1252;-65
2022/07/26 00:53:40;;;;;;;;;;;;;;;;;;2206639;67;1938;-65
2022/07/26 00:56:14;;;;;;;;;;;;;;;;;;2206176;67;1625;-64
2022/07/26 00:58:49;;;;;;;;;;;;;;;;;;2205861;67;1240;-65
2022/07/26 01:01:23;;;;;;;;;;;;;;;;;;2206072;59;1296;-64
2022/07/26 01:03:56;;;;;;;;;;;;;;;;;;2205743;67;1221;-65
2022/07/26 01:06:29;;;;;;;;;;;;;;;;;;2206527;67;1109;-65
2022/07/26 01:09:04;;;;;;;;;;;;;;;;;;2205601;67;1109;-65
2022/07/26 01:11:37;;;;;;;;;;;;;;;;;;2206429;59;1297;-65
2022/07/26 01:14:13;;;;;;;;;;;;;;;;;;2202718;67;1937;-65
2022/07/26 01:16:46;;;;;;;;;;;;;;;;;;2206512;59;2032;-64
2022/07/26 01:19:19;;;;;;;;;;;;;;;;;;2206135;67;1141;-64
2022/07/26 01:21:55;;;;;;;;;;;;;;;;;;2205894;67;1262;-65
2022/07/26 01:24:28;;;;;;;;;;;;;;;;;;2206581;67;1120;-64
2022/07/26 01:27:02;;;;;;;;;;;;;;;;;;2205916;67;1137;-64
2022/07/26 01:29:35;;;;;;;;;;;;;;;;;;2206150;67;1170;-64
2022/07/26 01:32:09;;;;;;;;;;;;;;;;;;2206743;67;1204;-65
2022/07/26 01:34:42;;;;;;;;;;;;;;;;;;2206439;67;1941;-65
2022/07/26 01:37:18;;;;;;;;;;;;;;;;;;2206503;59;2099;-65
2022/07/26 01:39:51;;;;;;;;;;;;;;;;;;2206916;67;1212;-64
2022/07/26 01:42:24;;;;;;;;;;;;;;;;;;2207365;67;1292;-63
2022/07/26 01:44:57;;;;;;;;;;;;;;;;;;2206697;67;1195;-64
2022/07/26 01:47:31;;;;;;;;;;;;;;;;;;2205551;67;1293;-62
2022/07/26 01:50:04;;;;;;;;;;;;;;;;;;2206669;67;1667;-65
2022/07/26 01:52:40;;;;;;;;;;;;;;;;;;2207063;67;1941;-62
2022/07/26 01:55:13;;;;;;;;;;;;;;;;;;2205632;67;1171;-65
2022/07/26 01:57:46;;;;;;;;;;;;;;;;;;2205951;67;1240;-64
2022/07/26 02:00:20;;;;;;;;;;;;;;;;;;2205872;67;1071;-64
2022/07/26 02:02:53;;;;;;;;;;;;;;;;;;2205486;59;1296;-65
2022/07/26 02:05:26;;;;;;;;;;;;;;;;;;2206098;67;1761;-65
2022/07/26 02:08:02;;;;;;;;;;;;;;;;;;2206942;67;1127;-65
2022/07/26 02:13:20;;;;;;;;;;;;;;;;;;2205932;67;2072;-64
2022/07/26 02:15:54;;;;;;;;;;;;;;;;;;2205901;59;2084;-65
2022/07/26 02:18:27;;;;;;;;;;;;;;;;;;2205876;67;1331;-65
2022/07/26 02:21:01;;;;;;;;;;;;;;;;;;2206174;67;1255;-65
2022/07/26 02:23:37;;;;;;;;;;;;;;;;;;2207316;67;1279;-64
2022/07/26 02:26:10;;;;;;;;;;;;;;;;;;2206498;67;1132;-65
2022/07/26 02:28:43;;;;;;;;;;;;;;;;;;2206760;67;1149;-64
2022/07/26 02:42:08;;;;;;;;;;;;;;;;;;2350147;53;2467;-55
2022/07/26 02:44:41;;;;;;;;;;;;;;;;;;2209575;59;1410;-56
2022/07/26 02:47:14;;;;;;;;;;;;;;;;;;2210489;59;1267;-54
2022/07/26 02:49:48;;;;;;;;;;;;;;;;;;2209913;67;1179;-55
2022/07/26 02:52:21;;;;;;;;;;;;;;;;;;2210183;59;1214;-55
2022/07/26 02:54:54;;;;;;;;;;;;;;;;;;2210015;67;1980;-54
2022/07/26 02:57:30;;;;;;;;;;;;;;;;;;2210221;67;1221;-55
2022/07/26 03:00:03;;;;;;;;;;;;;;;;;;2209560;59;1252;-54
2022/07/26 03:02:36;;;;;;;;;;;;;;;;;;2209458;59;1231;-54
2022/07/26 03:05:09;;;;;;;;;;;;;;;;;;2210528;59;2928;-55
2022/07/26 03:07:43;;;;;;;;;;;;;;;;;;2210876;59;1288;-55
2022/07/26 03:10:16;;;;;;;;;;;;;;;;;;2210720;67;1172;-54
2022/07/26 03:12:52;;;;;;;;;;;;;;;;;;2210045;59;1928;-55
2022/07/26 03:15:25;;;;;;;;;;;;;;;;;;2211276;59;1972;-54
2022/07/26 03:17:58;;;;;;;;;;;;;;;;;;2210579;67;1304;-55
2022/07/26 03:20:32;;;;;;;;;;;;;;;;;;2210098;59;1216;-55
2022/07/26 03:23:05;;;;;;;;;;;;;;;;;;2210989;67;1380;-54
2022/07/26 03:25:38;;;;;;;;;;;;;;;;;;2210840;67;1058;-54
2022/07/26 03:28:14;;;;;;;;;;;;;;;;;;2210811;67;1077;-54
2022/07/26 03:30:47;;;;;;;;;;;;;;;;;;2213356;59;1322;-56
2022/07/26 03:33:20;;;;;;;;;;;;;;;;;;2215945;67;1913;-54
2022/07/26 03:35:53;;;;;;;;;;;;;;;;;;2211347;59;1307;-54
2022/07/26 03:38:27;;;;;;;;;;;;;;;;;;2211214;59;1316;-54
2022/07/26 03:41:00;;;;;;;;;;;;;;;;;;2210384;67;1166;-54
2022/07/26 03:43:36;;;;;;;;;;;;;;;;;;2210555;59;1310;-54
2022/07/26 03:46:09;;;;;;;;;;;;;;;;;;2210175;67;1204;-54
2022/07/26 03:48:42;;;;;;;;;;;;;;;;;;2210106;67;1187;-54
2022/07/26 03:51:15;;;;;;;;;;;;;;;;;;2210020;67;1009;-55
2022/07/26 03:53:48;;;;;;;;;;;;;;;;;;2210248;67;1980;-54
2022/07/26 03:56:30;;;;;;;;;;;;;;;;;;2210029;59;1101;-54
2022/07/26 03:59:07;;;;;;;;;;;;;;;;;;2209599;67;1282;-58
2022/07/26 04:01:42;;;;;;;;;;;;;;;;;;2209910;59;2129;-52
2022/07/26 04:04:17;;;;;;;;;;;;;;;;;;2209941;59;1250;-52
2022/07/26 04:06:50;;;;;;;;;;;;;;;;;;2211167;67;1313;-52
2022/07/26 04:09:23;;;;;;;;;;;;;;;;;;2211433;59;1208;-52
2022/07/26 04:11:56;;;;;;;;;;;;;;;;;;2210923;59;1383;-52
2022/07/26 04:14:32;;;;;;;;;;;;;;;;;;2211710;59;1931;-52
2022/07/26 04:17:05;;;;;;;;;;;;;;;;;;2210201;59;2347;-52
2022/07/26 04:19:39;;;;;;;;;;;;;;;;;;2211752;67;1241;-52
2022/07/26 04:22:12;;;;;;;;;;;;;;;;;;2211202;67;1198;-52
2022/07/26 04:24:45;;;;;;;;;;;;;;;;;;2211871;67;1337;-52
2022/07/26 04:27:18;;;;;;;;;;;;;;;;;;2210119;59;1967;-51
2022/07/26 04:29:54;;;;;;;;;;;;;;;;;;2211736;67;1274;-52
2022/07/26 04:32:27;;;;;;;;;;;;;;;;;;2210280;67;1211;-53
2022/07/26 04:35:00;;;;;;;;;;;;;;;;;;2210641;59;1937;-51
2022/07/26 04:37:39;;;;;;;;;;;;;;;;;;2211871;59;1873;-52
2022/07/26 04:40:13;;;;;;;;;;;;;;;;;;2210875;67;1133;-52
2022/07/26 04:42:46;;;;;;;;;;;;;;;;;;2210950;59;1260;-52
2022/07/26 04:45:22;;;;;;;;;;;;;;;;;;2211531;67;1016;-52
2022/07/26 04:47:56;;;;;;;;;;;;;;;;;;2210543;67;1191;-52
2022/07/26 04:50:29;;;;;;;;;;;;;;;;;;2210953;67;1221;-53
2022/07/26 04:53:02;;;;;;;;;;;;;;;;;;2209905;67;1275;-52
2022/07/26 04:55:35;;;;;;;;;;;;;;;;;;2211369;67;1937;-52
2022/07/26 04:58:09;;;;;;;;;;;;;;;;;;2210732;67;1144;-53
2022/07/26 05:00:45;;;;;;;;;;;;;;;;;;2209626;67;1252;-52
2022/07/26 05:03:18;;;;;;;;;;;;;;;;;;2210140;59;1245;-52
2022/07/26 05:05:51;;;;;;;;;;;;;;;;;;2210689;67;1203;-58
2022/07/26 05:08:24;;;;;;;;;;;;;;;;;;2210905;67;1234;-52
2022/07/26 05:10:57;;;;;;;;;;;;;;;;;;2210380;59;1342;-53
2022/07/26 05:13:30;;;;;;;;;;;;;;;;;;2211106;67;1928;-51
2022/07/26 05:16:06;;;;;;;;;;;;;;;;;;2210503;59;2030;-52
2022/07/26 05:18:40;;;;;;;;;;;;;;;;;;2211440;67;1216;-55
2022/07/26 05:21:13;;;;;;;;;;;;;;;;;;2210661;67;1090;-56
2022/07/26 05:23:46;;;;;;;;;;;;;;;;;;2210813;67;1231;-52
2022/07/26 05:26:19;;;;;;;;;;;;;;;;;;2210577;67;1219;-52
2022/07/26 05:28:53;;;;;;;;;;;;;;;;;;2210824;67;1255;-52
2022/07/26 05:31:29;;;;;;;;;;;;;;;;;;2211091;67;1285;-52
2022/07/26 05:34:02;;;;;;;;;;;;;;;;;;2210421;67;1933;-52
2022/07/26 05:36:35;;;;;;;;;;;;;;;;;;2210861;59;1263;-52
2022/07/26 05:39:08;;;;;;;;;;;;;;;;;;2210646;59;1881;-52
2022/07/26 05:41:41;;;;;;;;;;;;;;;;;;2210787;67;1297;-52
2022/07/26 05:44:14;;;;;;;;;;;;;;;;;;2210749;67;1112;-52
2022/07/26 05:46:50;;;;;;;;;;;;;;;;;;2209925;59;1315;-52
2022/07/26 05:49:24;;;;;;;;;;;;;;;;;;2210357;67;1230;-52
2022/07/26 05:51:57;;;;;;;;;;;;;;;;;;2210548;67;1219;-52
2022/07/26 05:54:31;;;;;;;;;;;;;;;;;;2210124;67;2007;-52
2022/07/26 05:57:04;;;;;;;;;;;;;;;;;;2210118;67;1215;-52
2022/07/26 05:59:37;;;;;;;;;;;;;;;;;;2210504;67;1191;-53
2022/07/26 06:02:13;;;;;;;;;;;;;;;;;;2209777;67;1201;-54
2022/07/26 06:04:46;;;;;;;;;;;;;;;;;;2210076;59;1183;-53
2022/07/26 06:07:19;;;;;;;;;;;;;;;;;;2210498;67;1128;-52
2022/07/26 06:09:52;;;;;;;;;;;;;;;;;;2211913;67;1251;-52
2022/07/26 06:12:25;;;;;;;;;;;;;;;;;;2215546;59;1255;-53
2022/07/26 06:14:58;;;;;;;;;;;;;;;;;;2212713;59;1977;-55
2022/07/26 06:17:34;;;;;;;;;;;;;;;;;;2210446;67;1189;-54
2022/07/26 06:20:08;;;;;;;;;;;;;;;;;;2209979;59;1062;-52
2022/07/26 06:22:41;;;;;;;;;;;;;;;;;;2210607;67;1252;-52
2022/07/26 06:25:14;;;;;;;;;;;;;;;;;;2210141;67;1159;-52
2022/07/26 06:27:48;;;;;;;;;;;;;;;;;;2210195;67;1268;-53
2022/07/26 06:30:21;;;;;;;;;;;;;;;;;;2209707;67;1076;-52
2022/07/26 06:32:57;;;;;;;;;;;;;;;;;;2209528;67;1174;-52
2022/07/26 06:35:31;;;;;;;;;;;;;;;;;;2208840;59;1987;-52
2022/07/26 06:38:04;;;;;;;;;;;;;;;;;;2210077;59;1940;-52
2022/07/26 06:40:37;;;;;;;;;;;;;;;;;;2210920;67;1199;-52
2022/07/26 06:43:10;;;;;;;;;;;;;;;;;;2210625;59;1235;-55
2022/07/26 06:45:44;;;;;;;;;;;;;;;;;;2210018;67;1192;-52
2022/07/26 06:48:19;;;;;;;;;;;;;;;;;;2210709;67;1200;-56
2022/07/26 06:50:53;;;;;;;;;;;;;;;;;;2210497;67;1271;-52
2022/07/26 06:53:26;;;;;;;;;;;;;;;;;;2210432;67;1323;-55
2022/07/26 06:55:59;;;;;;;;;;;;;;;;;;2210572;67;1918;-52
2022/07/26 06:58:32;;;;;;;;;;;;;;;;;;2210236;67;1240;-52
2022/07/26 07:01:06;;;;;;;;;;;;;;;;;;2210462;67;1140;-52
2022/07/26 07:03:42;;;;;;;;;;;;;;;;;;2210478;67;1305;-52
2022/07/26 07:06:15;;;;;;;;;;;;;;;;;;2210410;67;1098;-53
2022/07/26 07:08:49;;;;;;;;;;;;;;;;;;2210481;67;1267;-55
2022/07/26 07:11:22;;;;;;;;;;;;;;;;;;2210360;67;1466;-51
2022/07/26 07:13:56;;;;;;;;;;;;;;;;;;2210686;67;1151;-55
2022/07/26 07:16:29;;;;;;;;;;;;;;;;;;2210565;59;1929;-52
2022/07/26 07:19:05;;;;;;;;;;;;;;;;;;2210427;67;1243;-52
2022/07/26 07:21:38;;;;;;;;;;;;;;;;;;2210289;67;1220;-53
2022/07/26 07:24:11;;;;;;;;;;;;;;;;;;2210561;67;1188;-52
2022/07/26 07:26:45;;;;;;;;;;;;;;;;;;2210724;67;1227;-52
2022/07/26 07:29:19;;;;;;;;;;;;;;;;;;2210749;67;1107;-52
2022/07/26 07:31:52;;;;;;;;;;;;;;;;;;2210901;67;1282;-53
2022/07/26 07:34:28;;;;;;;;;;;;;;;;;;2210726;67;1988;-52
2022/07/26 07:37:01;;;;;;;;;;;;;;;;;;2210384;59;1302;-56
2022/07/26 07:39:34;;;;;;;;;;;;;;;;;;2209989;67;994;-52
2022/07/26 07:42:07;;;;;;;;;;;;;;;;;;2210466;59;1199;-52
2022/07/26 07:44:40;;;;;;;;;;;;;;;;;;2210642;67;1188;-52
2022/07/26 07:47:14;;;;;;;;;;;;;;;;;;2210538;67;1033;-52
2022/07/26 07:49:49;;;;;;;;;;;;;;;;;;2210331;67;1081;-53
2022/07/26 07:52:23;;;;;;;;;;;;;;;;;;2210593;67;1255;-52
2022/07/26 07:54:56;;;;;;;;;;;;;;;;;;2210596;67;1919;-54
2022/07/26 07:57:29;;;;;;;;;;;;;;;;;;2210506;67;1098;-53
2022/07/26 08:00:02;;;;;;;;;;;;;;;;;;2210405;67;1817;-52
2022/07/26 08:02:35;;;;;;;;;;;;;;;;;;2206282;59;1844;-53
2022/07/26 08:05:12;;;;;;;;;;;;;;;;;;2210086;67;1208;-56
2022/07/26 08:07:45;;;;;;;;;;;;;;;;;;2210339;67;1192;-52
2022/07/26 08:10:18;;;;;;;;;;;;;;;;;;2210381;67;1148;-52
2022/07/26 08:12:51;;;;;;;;;;;;;;;;;;2210295;59;1596;-54
2022/07/26 08:15:26;;;;;;;;;;;;;;;;;;2210487;59;1982;-52
2022/07/26 08:17:59;;;;;;;;;;;;;;;;;;2210723;67;1191;-52
2022/07/26 08:20:35;;;;;;;;;;;;;;;;;;2211204;67;1112;-53
2022/07/26 08:23:08;;;;;;;;;;;;;;;;;;2211463;67;1239;-54
2022/07/26 08:25:41;;;;;;;;;;;;;;;;;;2210367;67;1202;-54
2022/07/26 08:28:15;;;;;;;;;;;;;;;;;;2211064;67;1110;-57
2022/07/26 08:30:48;;;;;;;;;;;;;;;;;;2210816;67;1356;-53
2022/07/26 08:33:22;;;;;;;;;;;;;;;;;;2210590;67;1242;-52
2022/07/26 08:35:58;;;;;;;;;;;;;;;;;;2211491;59;1936;-52
2022/07/26 08:38:31;;;;;;;;;;;;;;;;;;2211075;59;1903;-53
2022/07/26 08:41:04;;;;;;;;;;;;;;;;;;2211358;67;1247;-52
2022/07/26 08:43:37;;;;;;;;;;;;;;;;;;2210874;59;1221;-55
2022/07/26 08:46:10;;;;;;;;;;;;;;;;;;2207400;67;1317;-54
2022/07/26 08:48:43;;;;;;;;;;;;;;;;;;2210841;67;1310;-54
2022/07/26 08:51:21;;;;;;;;;;;;;;;;;;2213321;67;1131;-54
2022/07/26 08:53:55;;;;;;;;;;;;;;;;;;2214697;59;1220;-54
2022/07/26 08:56:28;;;;;;;;;;;;;;;;;;2211183;67;1936;-54
2022/07/26 08:59:04;;;;;;;;;;;;;;;;;;2210621;67;1219;-56
2022/07/26 09:01:51;;;;;;;;;;;;;;;;;;2210263;67;1309;-55
2022/07/26 09:04:25;;;;;;;;;;;;;;;;;;2210419;67;1298;-55
2022/07/26 09:07:02;;;;;;;;;;;;;;;;;;2210370;67;1069;-58
2022/07/26 09:09:36;;;;;;;;;;;;;;;;;;2209591;67;1105;-63
2022/07/26 09:12:16;;;;;;;;;;;;;;;;;;2210266;59;1429;-55
2022/07/26 09:14:49;;;;;;;;;;;;;;;;;;2210537;67;1170;-55
2022/07/26 09:17:24;;;;;;;;;;;;;;;;;;2209646;59;2376;-55
2022/07/26 09:20:08;;;;;;;;;;;;;;;;;;2210197;67;1316;-56
2022/07/26 09:22:57;;;;;;;;;;;;;;;;;;2209918;67;1216;-55
2022/07/26 09:25:32;;;;;;;;;;;;;;;;;;2209847;67;1182;-56
2022/07/26 09:28:06;;;;;;;;;;;;;;;;;;2210518;67;1091;-55
2022/07/26 09:30:40;;;;;;;;;;;;;;;;;;2210101;67;1269;-54
2022/07/26 09:33:13;;;;;;;;;;;;;;;;;;2210344;67;1262;-56
2022/07/26 09:36:01;;;;;;;;;;;;;;;;;;2210237;59;1933;-54
2022/07/26 09:38:44;;;;;;;;;;;;;;;;;;2209535;59;1978;-54
2022/07/26 09:41:21;;;;;;;;;;;;;;;;;;2210285;67;1162;-54
2022/07/26 09:43:57;;;;;;;;;;;;;;;;;;2209816;67;1270;-55
2022/07/26 09:46:31;;;;;;;;;;;;;;;;;;2209646;67;1071;-54
2022/07/26 09:49:17;;;;;;;;;;;;;;;;;;2210028;67;1142;-55
2022/07/26 09:51:51;;;;;;;;;;;;;;;;;;2209688;67;1225;-55
2022/07/26 09:54:35;;;;;;;;;;;;;;;;;;2209972;60;1264;-57
2022/07/26 09:57:09;;;;;;;;;;;;;;;;;;2209525;67;1941;-60
2022/07/26 09:59:42;;;;;;;;;;;;;;;;;;2209826;67;1294;-55
2022/07/26 10:02:15;;;;;;;;;;;;;;;;;;2211353;67;1257;-54
2022/07/26 10:04:48;;;;;;;;;;;;;;;;;;2210988;59;1284;-56
2022/07/26 10:07:21;;;;;;;;;;;;;;;;;;2210719;67;1141;-55
2022/07/26 10:10:02;;;;;;;;;;;;;;;;;;2210685;67;1221;-56
2022/07/26 10:12:36;;;;;;;;;;;;;;;;;;2209998;67;1712;-60
2022/07/26 10:15:29;;;;;;;;;;;;;;;;;;2210966;59;1991;-56
2022/07/26 10:18:03;;;;;;;;;;;;;;;;;;2210416;67;1638;-56
2022/07/26 10:20:50;;;;;;;;;;;;;;;;;;2210668;67;1206;-56
2022/07/26 10:23:36;;;;;;;;;;;;;;;;;;2210817;67;1307;-56
2022/07/26 10:26:13;;;;;;;;;;;;;;;;;;2210158;67;1277;-57
2022/07/26 10:28:46;;;;;;;;;;;;;;;;;;2209997;67;1210;-54
2022/07/26 10:31:32;;;;;;;;;;;;;;;;;;2210781;67;1268;-58
2022/07/26 10:34:05;;;;;;;;;;;;;;;;;;2209781;67;1062;-55
2022/07/26 10:36:40;;;;;;;;;;;;;;;;;;2209430;59;1936;-55
2022/07/26 10:39:14;;;;;;;;;;;;;;;;;;2210417;59;1892;-56
2022/07/26 10:41:59;;;;;;;;;;;;;;;;;;2211480;59;1203;-54
2022/07/26 10:44:33;;;;;;;;;;;;;;;;;;2211922;67;1211;-56
2022/07/26 10:47:20;;;;;;;;;;;;;;;;;;2210394;67;1190;-54
2022/07/26 10:49:57;;;;;;;;;;;;;;;;;;2210143;67;1203;-54
2022/07/26 10:52:31;;;;;;;;;;;;;;;;;;2211303;67;1185;-54
2022/07/26 10:55:08;;;;;;;;;;;;;;;;;;2209819;67;1150;-56
2022/07/26 10:57:45;;;;;;;;;;;;;;;;;;2210449;67;1937;-55
2022/07/26 11:00:19;;;;;;;;;;;;;;;;;;2210227;67;1066;-57
2022/07/26 11:02:57;;;;;;;;;;;;;;;;;;2210258;59;1312;-54
2022/07/26 11:05:33;;;;;;;;;;;;;;;;;;2210496;67;1337;-56
2022/07/26 11:08:08;;;;;;;;;;;;;;;;;;2210623;67;1128;-56
2022/07/26 11:10:42;;;;;;;;;;;;;;;;;;2209940;59;1241;-54
2022/07/26 11:13:19;;;;;;;;;;;;;;;;;;2209878;67;1193;-54
2022/07/26 11:15:53;;;;;;;;;;;;;;;;;;2210159;59;1941;-54
2022/07/26 11:18:29;;;;;;;;;;;;;;;;;;2210739;67;1177;-54
2022/07/26 11:21:10;;;;;;;;;;;;;;;;;;2210263;67;1238;-53
2022/07/26 11:23:44;;;;;;;;;;;;;;;;;;2211039;66;1224;-54
2022/07/26 11:26:19;;;;;;;;;;;;;;;;;;2210435;67;1199;-54
2022/07/26 11:28:56;;;;;;;;;;;;;;;;;;2211538;67;1132;-54
2022/07/26 11:31:35;;;;;;;;;;;;;;;;;;2213751;67;1142;-56
2022/07/26 11:34:09;;;;;;;;;;;;;;;;;;2216178;67;1193;-56
2022/07/26 11:36:44;;;;;;;;;;;;;;;;;;2213630;67;1896;-56
2022/07/26 11:39:18;;;;;;;;;;;;;;;;;;2211095;59;2046;-56
2022/07/26 11:41:51;;;;;;;;;;;;;;;;;;2211221;59;1218;-55
2022/07/26 11:44:28;;;;;;;;;;;;;;;;;;2211428;67;1181;-55
2022/07/26 11:47:01;;;;;;;;;;;;;;;;;;2210331;67;1190;-54
2022/07/26 11:49:35;;;;;;;;;;;;;;;;;;2210979;67;1107;-55
2022/07/26 11:52:08;;;;;;;;;;;;;;;;;;2210642;67;1224;-54
2022/07/26 11:54:46;;;;;;;;;;;;;;;;;;2210575;67;1086;-55
2022/07/26 11:57:20;;;;;;;;;;;;;;;;;;2210858;67;1920;-54
2022/07/26 11:59:56;;;;;;;;;;;;;;;;;;2209783;67;1287;-54
2022/07/26 12:02:29;;;;;;;;;;;;;;;;;;2211034;67;1189;-55
2022/07/26 12:05:14;;;;;;;;;;;;;;;;;;2210165;67;1316;-58
2022/07/26 12:07:54;;;;;;;;;;;;;;;;;;2211360;67;1176;-54
2022/07/26 12:10:28;;;;;;;;;;;;;;;;;;2210627;67;1200;-55
2022/07/26 12:13:08;;;;;;;;;;;;;;;;;;2210014;59;1675;-54
2022/07/26 12:15:48;;;;;;;;;;;;;;;;;;2211090;59;2014;-54
2022/07/26 12:18:28;;;;;;;;;;;;;;;;;;2210602;59;1933;-54
2022/07/26 12:21:03;;;;;;;;;;;;;;;;;;2209685;67;1220;-55
2022/07/26 12:23:43;;;;;;;;;;;;;;;;;;2211115;67;1219;-54
2022/07/26 12:26:23;;;;;;;;;;;;;;;;;;2210457;67;1106;-54
2022/07/26 12:28:57;;;;;;;;;;;;;;;;;;2209976;67;1223;-54
2022/07/26 12:31:33;;;;;;;;;;;;;;;;;;2210247;67;1217;-55
2022/07/26 12:34:07;;;;;;;;;;;;;;;;;;2210411;67;1244;-55
2022/07/26 12:36:40;;;;;;;;;;;;;;;;;;2210681;59;1933;-54
2022/07/26 12:39:20;;;;;;;;;;;;;;;;;;2210102;59;1916;-54
2022/07/26 12:41:53;;;;;;;;;;;;;;;;;;2209965;59;1286;-54
2022/07/26 12:44:27;;;;;;;;;;;;;;;;;;2210177;67;1229;-57
2022/07/26 12:47:03;;;;;;;;;;;;;;;;;;2209713;67;1254;-54
2022/07/26 12:49:36;;;;;;;;;;;;;;;;;;2210436;67;1240;-55
2022/07/26 12:52:09;;;;;;;;;;;;;;;;;;2209866;67;1205;-54
2022/07/26 12:54:42;;;;;;;;;;;;;;;;;;2210414;67;1186;-54
2022/07/26 12:57:15;;;;;;;;;;;;;;;;;;2210059;67;1942;-55
2022/07/26 12:59:49;;;;;;;;;;;;;;;;;;2210345;67;1244;-54
2022/07/26 13:02:26;;;;;;;;;;;;;;;;;;2209785;67;1228;-54
2022/07/26 13:04:59;;;;;;;;;;;;;;;;;;2209997;59;1295;-61
2022/07/26 13:07:32;;;;;;;;;;;;;;;;;;2210207;67;1186;-56
2022/07/26 13:10:06;;;;;;;;;;;;;;;;;;2209670;67;1140;-54
2022/07/26 13:12:39;;;;;;;;;;;;;;;;;;2210693;59;1279;-55
2022/07/26 13:15:13;;;;;;;;;;;;;;;;;;2210542;59;2010;-55
2022/07/26 13:17:50;;;;;;;;;;;;;;;;;;2210003;67;1920;-55
2022/07/26 13:20:23;;;;;;;;;;;;;;;;;;2210325;67;1138;-55
2022/07/26 13:22:56;;;;;;;;;;;;;;;;;;2209973;67;1252;-54
2022/07/26 13:25:29;;;;;;;;;;;;;;;;;;2210445;67;1082;-55
2022/07/26 13:28:03;;;;;;;;;;;;;;;;;;2209842;67;1251;-56
2022/07/26 13:30:37;;;;;;;;;;;;;;;;;;2210059;59;1209;-55
2022/07/26 13:33:15;;;;;;;;;;;;;;;;;;2210457;67;1137;-54
2022/07/26 13:35:48;;;;;;;;;;;;;;;;;;2210898;59;1390;-54
2022/07/26 13:38:21;;;;;;;;;;;;;;;;;;2210005;59;2074;-54
2022/07/26 13:40:55;;;;;;;;;;;;;;;;;;2210437;67;1101;-54
2022/07/26 13:43:29;;;;;;;;;;;;;;;;;;2210408;59;1174;-57
2022/07/26 13:46:03;;;;;;;;;;;;;;;;;;2209774;67;1294;-55
2022/07/26 13:48:39;;;;;;;;;;;;;;;;;;2209805;67;1184;-56
2022/07/26 13:51:12;;;;;;;;;;;;;;;;;;2209938;67;1033;-54
2022/07/26 13:53:45;;;;;;;;;;;;;;;;;;2209991;67;1692;-54
2022/07/26 13:56:18;;;;;;;;;;;;;;;;;;2210110;67;1044;-54
2022/07/26 13:58:51;;;;;;;;;;;;;;;;;;2210248;67;1931;-56
2022/07/26 14:01:24;;;;;;;;;;;;;;;;;;2210110;67;1235;-56
2022/07/26 14:04:01;;;;;;;;;;;;;;;;;;2209689;67;1319;-55
2022/07/26 14:06:34;;;;;;;;;;;;;;;;;;2209546;67;1209;-55
2022/07/26 14:09:08;;;;;;;;;;;;;;;;;;2209855;67;1222;-54
2022/07/26 14:11:42;;;;;;;;;;;;;;;;;;2212100;59;1660;-54
2022/07/26 14:14:15;;;;;;;;;;;;;;;;;;2213594;67;1119;-58
2022/07/26 14:16:48;;;;;;;;;;;;;;;;;;2211299;59;1857;-56
2022/07/26 14:19:24;;;;;;;;;;;;;;;;;;2209987;67;1932;-57
2022/07/26 14:21:57;;;;;;;;;;;;;;;;;;2209670;67;1201;-54
2022/07/26 14:24:30;;;;;;;;;;;;;;;;;;2209609;67;1206;-54
2022/07/26 14:27:04;;;;;;;;;;;;;;;;;;2210461;67;1255;-56
2022/07/26 14:29:37;;;;;;;;;;;;;;;;;;2210425;67;1204;-55
2022/07/26 14:32:10;;;;;;;;;;;;;;;;;;2210694;67;1231;-54
2022/07/26 14:34:46;;;;;;;;;;;;;;;;;;2210300;67;1121;-55
2022/07/26 14:37:19;;;;;;;;;;;;;;;;;;2210174;59;1987;-55
2022/07/26 14:39:52;;;;;;;;;;;;;;;;;;2210441;67;1099;-56
2022/07/26 14:42:26;;;;;;;;;;;;;;;;;;2210577;59;1288;-55
2022/07/26 14:44:59;;;;;;;;;;;;;;;;;;2210232;67;1178;-54
2022/07/26 14:47:32;;;;;;;;;;;;;;;;;;2210640;67;1192;-62
2022/07/26 14:50:09;;;;;;;;;;;;;;;;;;2210868;67;1202;-55
2022/07/26 14:52:42;;;;;;;;;;;;;;;;;;2210330;67;1198;-56
2022/07/26 14:55:16;;;;;;;;;;;;;;;;;;2210158;67;1140;-55
2022/07/26 14:57:49;;;;;;;;;;;;;;;;;;2209808;67;2008;-57
2022/07/26 15:00:23;;;;;;;;;;;;;;;;;;2210572;67;1234;-54
2022/07/26 15:02:56;;;;;;;;;;;;;;;;;;2210180;59;1264;-54
2022/07/26 15:05:32;;;;;;;;;;;;;;;;;;2210822;67;1106;-57
2022/07/26 15:08:05;;;;;;;;;;;;;;;;;;2210646;67;1077;-57
2022/07/26 15:10:38;;;;;;;;;;;;;;;;;;2210646;59;1370;-54
2022/07/26 15:13:13;;;;;;;;;;;;;;;;;;2210887;67;1178;-54
2022/07/26 15:15:46;;;;;;;;;;;;;;;;;;2210556;59;1965;-54
2022/07/26 15:18:20;;;;;;;;;;;;;;;;;;2210722;67;1935;-55
2022/07/26 15:20:56;;;;;;;;;;;;;;;;;;2210872;67;1387;-55
2022/07/26 15:23:30;;;;;;;;;;;;;;;;;;2211344;67;1254;-54
2022/07/26 15:26:03;;;;;;;;;;;;;;;;;;2210849;67;1243;-54
2022/07/26 15:28:36;;;;;;;;;;;;;;;;;;2211115;67;1194;-55
2022/07/26 15:31:11;;;;;;;;;;;;;;;;;;2210884;67;1144;-54
2022/07/26 15:33:44;;;;;;;;;;;;;;;;;;2210893;67;1263;-56
2022/07/26 15:36:20;;;;;;;;;;;;;;;;;;2211150;59;1461;-54
2022/07/26 15:38:53;;;;;;;;;;;;;;;;;;2210612;59;2004;-54
2022/07/26 15:41:26;;;;;;;;;;;;;;;;;;2210917;59;1229;-54
2022/07/26 15:43:59;;;;;;;;;;;;;;;;;;2210470;67;1173;-54
2022/07/26 15:46:32;;;;;;;;;;;;;;;;;;2209457;67;1183;-54
2022/07/26 15:49:05;;;;;;;;;;;;;;;;;;2210480;67;1155;-54
2022/07/26 15:51:41;;;;;;;;;;;;;;;;;;2207227;67;1917;-54
2022/07/26 15:54:16;;;;;;;;;;;;;;;;;;2210333;67;1081;-57
2022/07/26 15:56:49;;;;;;;;;;;;;;;;;;2210370;59;1182;-54
2022/07/26 15:59:22;;;;;;;;;;;;;;;;;;2209906;67;1928;-55
2022/07/26 16:01:55;;;;;;;;;;;;;;;;;;2209813;59;1370;-54
2022/07/26 16:04:28;;;;;;;;;;;;;;;;;;2209889;59;1246;-55
2022/07/26 16:07:04;;;;;;;;;;;;;;;;;;2209805;67;1222;-54
2022/07/26 16:09:37;;;;;;;;;;;;;;;;;;2210981;67;1209;-55
2022/07/26 16:12:10;;;;;;;;;;;;;;;;;;2211671;59;1366;-54
2022/07/26 16:14:44;;;;;;;;;;;;;;;;;;2210881;67;1146;-54
2022/07/26 16:17:17;;;;;;;;;;;;;;;;;;2210975;59;2269;-55
2022/07/26 16:19:50;;;;;;;;;;;;;;;;;;2211714;67;1988;-56
2022/07/26 16:22:26;;;;;;;;;;;;;;;;;;2211939;67;1293;-55
2022/07/26 16:24:59;;;;;;;;;;;;;;;;;;2211690;67;1203;-54
2022/07/26 16:27:32;;;;;;;;;;;;;;;;;;2211538;67;1203;-54
2022/07/26 16:30:06;;;;;;;;;;;;;;;;;;2211512;67;1010;-55
2022/07/26 16:32:39;;;;;;;;;;;;;;;;;;2211214;67;1300;-55
2022/07/26 16:35:12;;;;;;;;;;;;;;;;;;2211883;67;1082;-55
2022/07/26 16:37:49;;;;;;;;;;;;;;;;;;2211925;59;2022;-59
2022/07/26 16:40:22;;;;;;;;;;;;;;;;;;2211098;67;1117;-56
2022/07/26 16:42:55;;;;;;;;;;;;;;;;;;2211265;59;1287;-54
2022/07/26 16:45:28;;;;;;;;;;;;;;;;;;2211740;67;1157;-56
2022/07/26 16:48:01;;;;;;;;;;;;;;;;;;2211126;67;1222;-54
2022/07/26 16:50:34;;;;;;;;;;;;;;;;;;2214953;67;1220;-54
2022/07/26 16:53:10;;;;;;;;;;;;;;;;;;2215348;67;1202;-57
2022/07/26 16:55:45;;;;;;;;;;;;;;;;;;2211606;67;1226;-54
2022/07/26 16:58:19;;;;;;;;;;;;;;;;;;2211338;67;1996;-59
2022/07/26 17:00:52;;;;;;;;;;;;;;;;;;2210802;67;1085;-54
2022/07/26 17:03:25;;;;;;;;;;;;;;;;;;2210445;59;1391;-55
2022/07/26 17:06:00;;;;;;;;;;;;;;;;;;2210786;67;1188;-54
2022/07/26 17:08:36;;;;;;;;;;;;;;;;;;2211624;67;1291;-55
2022/07/26 17:11:09;;;;;;;;;;;;;;;;;;2206955;67;1273;-54
2022/07/26 17:13:42;;;;;;;;;;;;;;;;;;2209539;67;1220;-54
2022/07/26 17:16:15;;;;;;;;;;;;;;;;;;2210396;59;1971;-55
2022/07/26 17:18:48;;;;;;;;;;;;;;;;;;2211144;67;1901;-54
2022/07/26 17:21:21;;;;;;;;;;;;;;;;;;2211086;67;1263;-55
2022/07/26 17:23:57;;;;;;;;;;;;;;;;;;2211012;67;1205;-54
2022/07/26 17:26:31;;;;;;;;;;;;;;;;;;2210520;67;1253;-54
2022/07/26 17:29:05;;;;;;;;;;;;;;;;;;2210857;59;1211;-55
2022/07/26 17:31:38;;;;;;;;;;;;;;;;;;2210939;67;1306;-54
2022/07/26 17:34:11;;;;;;;;;;;;;;;;;;2209621;67;1224;-55
2022/07/26 17:36:44;;;;;;;;;;;;;;;;;;2211028;59;1389;-54
2022/07/26 17:39:20;;;;;;;;;;;;;;;;;;2211030;59;2070;-55
2022/07/26 17:41:53;;;;;;;;;;;;;;;;;;2210665;59;1276;-54
2022/07/26 17:44:26;;;;;;;;;;;;;;;;;;2211406;67;1205;-54
2022/07/26 17:47:00;;;;;;;;;;;;;;;;;;2210483;67;1120;-55
2022/07/26 17:49:33;;;;;;;;;;;;;;;;;;2210936;67;1227;-55
2022/07/26 17:52:06;;;;;;;;;;;;;;;;;;2210443;67;1184;-55
2022/07/26 17:54:42;;;;;;;;;;;;;;;;;;2210944;67;1123;-54
2022/07/26 17:57:15;;;;;;;;;;;;;;;;;;2209709;67;1090;-55
2022/07/26 17:59:49;;;;;;;;;;;;;;;;;;2210154;67;1936;-54
2022/07/26 18:02:22;;;;;;;;;;;;;;;;;;2209801;59;1327;-56
2022/07/26 18:04:55;;;;;;;;;;;;;;;;;;2210305;59;1316;-54
2022/07/26 18:07:28;;;;;;;;;;;;;;;;;;2210462;67;1199;-54